Time;durP1;ratioP1;P1;durP2;ratioP2;P2;SDS_P1;SDS_P2;PMS_P1;PMS_P2;Temp;Humidity;BMP_temperature;BMP_pressure;BME280_temperature;BME280_humidity;BME280_pressure;Samples;Min_cycle;Max_cycle;Signal;HPM_P1;HPM_P2
2023/08/30 00:00:10;;;;;;;21.23;13.23;;;;;;;;;;4959724;28;20027;-75
2023/08/30 00:02:36;;;;;;;31.92;13.95;;;;;;;;;;4976689;28;20054;-75
2023/08/30 00:05:03;;;;;;;24.23;13.20;;;;;;;;;;4975464;28;20035;-76
2023/08/30 00:07:29;;;;;;;20.17;13.88;;;;;;;;;;4976806;28;20091;-76
2023/08/30 00:09:58;;;;;;;25.80;13.85;;;;;;;;;;4975211;28;20439;-75
2023/08/30 00:12:24;;;;;;;23.92;14.43;;;;;;;;;;4957405;28;20459;-77
2023/08/30 00:14:51;;;;;;;20.92;14.80;;;;;;;;;;4957221;28;20034;-76
2023/08/30 00:17:17;;;;;;;28.70;14.98;;;;;;;;;;4974636;28;20125;-75
2023/08/30 00:19:43;;;;;;;27.65;15.98;;;;;;;;;;4975629;28;20514;-75
2023/08/30 00:22:09;;;;;;;25.50;16.25;;;;;;;;;;4969949;28;20094;-77
2023/08/30 00:24:35;;;;;;;32.38;18.83;;;;;;;;;;4974573;28;20066;-75
2023/08/30 00:27:02;;;;;;;26.15;16.38;;;;;;;;;;4973019;28;20042;-75
2023/08/30 00:29:28;;;;;;;28.45;15.98;;;;;;;;;;4974116;28;20384;-77
2023/08/30 00:31:55;;;;;;;24.88;18.00;;;;;;;;;;4957203;28;20039;-75
2023/08/30 00:34:21;;;;;;;22.73;16.15;;;;;;;;;;4973071;28;20054;-77
2023/08/30 00:36:47;;;;;;;23.88;15.95;;;;;;;;;;4972750;28;20031;-75
2023/08/30 00:39:13;;;;;;;19.83;15.85;;;;;;;;;;4973737;28;20478;-77
2023/08/30 00:41:39;;;;;;;23.08;16.20;;;;;;;;;;4972633;28;20125;-75
2023/08/30 00:44:06;;;;;;;22.15;17.50;;;;;;;;;;4973761;28;20042;-76
2023/08/30 00:46:32;;;;;;;23.27;16.52;;;;;;;;;;4956767;28;20039;-75
2023/08/30 00:49:02;;;;;;;21.48;16.50;;;;;;;;;;4956057;28;20110;-77
2023/08/30 00:51:28;;;;;;;25.02;16.67;;;;;;;;;;4972708;28;20035;-76
2023/08/30 00:53:55;;;;;;;19.65;16.42;;;;;;;;;;4973131;28;20042;-75
2023/08/30 00:56:21;;;;;;;23.52;15.80;;;;;;;;;;4953245;29;20039;-77
2023/08/30 00:58:47;;;;;;;19.48;16.25;;;;;;;;;;4950904;28;20129;-75
2023/08/30 01:01:15;;;;;;;23.95;15.88;;;;;;;;;;4973762;28;20053;-77
2023/08/30 01:03:41;;;;;;;21.52;17.17;;;;;;;;;;4956070;28;20050;-76
2023/08/30 01:06:07;;;;;;;21.20;15.07;;;;;;;;;;4936888;29;20038;-76
2023/08/30 01:08:36;;;;;;;19.75;15.65;;;;;;;;;;4952800;28;20491;-76
2023/08/30 01:11:10;;;;;;;18.65;14.88;;;;;;;;;;4973198;28;20027;-75
2023/08/30 01:13:50;;;;;;;20.35;15.45;;;;;;;;;;4973603;28;20034;-77
2023/08/30 01:16:16;;;;;;;25.58;16.45;;;;;;;;;;4956246;28;20030;-75
2023/08/30 01:18:43;;;;;;;20.33;15.95;;;;;;;;;;4973241;28;20590;-73
2023/08/30 01:21:09;;;;;;;21.83;17.17;;;;;;;;;;4956037;28;20043;-74
2023/08/30 01:23:49;;;;;;;21.45;15.85;;;;;;;;;;4972558;28;20553;-76
2023/08/30 01:26:15;;;;;;;18.85;15.40;;;;;;;;;;4955629;28;20034;-76
2023/08/30 01:28:42;;;;;;;21.52;15.63;;;;;;;;;;4972905;28;21003;-75
2023/08/30 01:31:09;;;;;;;22.77;16.58;;;;;;;;;;4976425;28;20041;-77
2023/08/30 01:33:36;;;;;;;20.00;15.55;;;;;;;;;;4982925;28;20129;-77
2023/08/30 01:36:03;;;;;;;18.98;15.63;;;;;;;;;;4974203;28;20087;-76
2023/08/30 01:38:29;;;;;;;22.80;16.70;;;;;;;;;;4935549;29;20047;-75
2023/08/30 01:40:56;;;;;;;20.88;15.60;;;;;;;;;;4970491;28;20039;-75
2023/08/30 01:43:23;;;;;;;21.80;15.57;;;;;;;;;;4973018;28;20055;-76
2023/08/30 01:45:49;;;;;;;21.00;15.65;;;;;;;;;;4972769;28;21338;-76
2023/08/30 01:48:15;;;;;;;27.05;15.60;;;;;;;;;;4971706;28;20039;-75
2023/08/30 01:50:42;;;;;;;21.08;15.38;;;;;;;;;;4955685;28;20122;-75
2023/08/30 01:53:08;;;;;;;27.67;16.90;;;;;;;;;;4954988;28;20601;-75
2023/08/30 01:55:34;;;;;;;22.83;15.65;;;;;;;;;;4972505;28;20302;-76
2023/08/30 01:58:00;;;;;;;24.77;15.98;;;;;;;;;;4941474;28;20231;-77
2023/08/30 02:00:26;;;;;;;21.52;15.90;;;;;;;;;;4939942;28;20605;-77
2023/08/30 02:02:53;;;;;;;25.98;16.45;;;;;;;;;;4951243;28;20051;-75
2023/08/30 02:05:19;;;;;;;21.85;15.15;;;;;;;;;;4951851;28;20030;-76
2023/08/30 02:07:57;;;;;;;23.40;16.23;;;;;;;;;;4952565;28;20043;-76
2023/08/30 02:10:24;;;;;;;22.77;16.02;;;;;;;;;;4951423;28;20031;-76
2023/08/30 02:12:53;;;;;;;21.08;16.48;;;;;;;;;;4967161;28;20039;-75
2023/08/30 02:15:19;;;;;;;27.15;17.10;;;;;;;;;;4951086;28;20103;-75
2023/08/30 02:17:46;;;;;;;21.85;15.60;;;;;;;;;;4951098;28;20038;-76
2023/08/30 02:20:12;;;;;;;20.38;15.13;;;;;;;;;;4967102;28;20047;-76
2023/08/30 02:22:38;;;;;;;23.38;16.02;;;;;;;;;;4948107;29;20465;-76
2023/08/30 02:25:07;;;;;;;17.67;14.65;;;;;;;;;;4951111;29;20102;-74
2023/08/30 02:27:34;;;;;;;21.00;15.05;;;;;;;;;;4952009;28;20085;-77
2023/08/30 02:30:02;;;;;;;25.23;16.13;;;;;;;;;;4952805;28;20115;-75
2023/08/30 02:32:32;;;;;;;24.65;15.07;;;;;;;;;;4953264;29;20039;-76
2023/08/30 02:34:58;;;;;;;17.58;14.60;;;;;;;;;;4950929;29;20032;-77
2023/08/30 02:37:24;;;;;;;21.85;15.68;;;;;;;;;;4951580;29;20035;-75
2023/08/30 02:39:50;;;;;;;19.90;14.93;;;;;;;;;;4952792;29;20126;-75
2023/08/30 02:42:16;;;;;;;18.50;13.88;;;;;;;;;;4967608;28;20069;-75
2023/08/30 02:44:43;;;;;;;20.08;13.55;;;;;;;;;;4952237;28;20566;-75
2023/08/30 02:47:09;;;;;;;16.83;12.65;;;;;;;;;;4966768;28;20138;-76
2023/08/30 02:49:35;;;;;;;21.58;14.25;;;;;;;;;;4967148;28;20055;-75
2023/08/30 02:52:02;;;;;;;16.08;13.85;;;;;;;;;;4966756;28;20134;-76
2023/08/30 02:54:28;;;;;;;15.13;13.45;;;;;;;;;;4966883;28;20118;-78
2023/08/30 02:56:54;;;;;;;15.27;13.68;;;;;;;;;;4950676;29;20047;-77
2023/08/30 02:59:20;;;;;;;15.63;13.57;;;;;;;;;;4951087;29;20068;-78
2023/08/30 03:01:46;;;;;;;15.13;12.88;;;;;;;;;;4966712;28;20059;-76
2023/08/30 03:04:15;;;;;;;16.05;13.32;;;;;;;;;;4967495;28;20121;-76
2023/08/30 03:06:41;;;;;;;16.75;12.95;;;;;;;;;;4971219;28;20038;-77
2023/08/30 03:09:07;;;;;;;18.88;13.93;;;;;;;;;;4955129;28;20039;-76
2023/08/30 03:11:36;;;;;;;18.13;13.32;;;;;;;;;;4929928;29;20042;-77
2023/08/30 03:14:02;;;;;;;15.30;13.70;;;;;;;;;;4942968;28;20058;-76
2023/08/30 03:16:29;;;;;;;16.92;13.57;;;;;;;;;;4955793;28;20035;-77
2023/08/30 03:18:55;;;;;;;20.90;13.23;;;;;;;;;;4954709;28;20050;-78
2023/08/30 03:21:21;;;;;;;16.70;13.75;;;;;;;;;;4954801;28;20042;-76
2023/08/30 03:23:47;;;;;;;20.23;14.65;;;;;;;;;;4971057;28;20043;-76
2023/08/30 03:26:15;;;;;;;15.90;13.88;;;;;;;;;;4970786;28;20035;-75
2023/08/30 03:28:41;;;;;;;17.98;14.13;;;;;;;;;;4954969;28;20043;-76
2023/08/30 03:31:17;;;;;;;17.38;15.55;;;;;;;;;;4954176;29;20039;-76
2023/08/30 03:33:44;;;;;;;15.93;14.27;;;;;;;;;;4954220;29;20070;-76
2023/08/30 03:36:11;;;;;;;16.65;14.85;;;;;;;;;;4953844;28;20035;-77
2023/08/30 03:38:38;;;;;;;17.60;14.73;;;;;;;;;;4954473;28;20046;-77
2023/08/30 03:41:05;;;;;;;16.55;13.85;;;;;;;;;;4938295;29;20473;-77
2023/08/30 03:43:31;;;;;;;16.85;14.27;;;;;;;;;;4970542;28;20111;-77
2023/08/30 03:45:58;;;;;;;18.80;14.40;;;;;;;;;;4954339;28;20455;-76
2023/08/30 03:48:24;;;;;;;23.83;14.65;;;;;;;;;;4955869;28;20043;-79
2023/08/30 03:50:50;;;;;;;16.52;14.30;;;;;;;;;;4971281;28;20027;-77
2023/08/30 03:53:16;;;;;;;16.80;14.60;;;;;;;;;;4971937;28;20110;-77
2023/08/30 03:55:43;;;;;;;15.05;13.45;;;;;;;;;;4956178;29;20138;-77
2023/08/30 03:58:10;;;;;;;13.45;12.25;;;;;;;;;;4957092;28;20097;-77
2023/08/30 04:00:36;;;;;;;13.85;12.45;;;;;;;;;;4957587;28;20405;-76
2023/08/30 04:03:03;;;;;;;14.20;12.50;;;;;;;;;;4939059;29;20082;-76
2023/08/30 04:05:35;;;;;;;14.90;13.23;;;;;;;;;;4956407;28;20027;-77
2023/08/30 04:08:02;;;;;;;13.80;12.38;;;;;;;;;;4954376;28;20050;-77
2023/08/30 04:10:28;;;;;;;12.88;11.60;;;;;;;;;;4956210;28;20031;-77
2023/08/30 04:12:55;;;;;;;13.82;12.43;;;;;;;;;;4937725;29;20037;-79
2023/08/30 04:15:21;;;;;;;11.77;10.55;;;;;;;;;;4954032;28;20035;-77
2023/08/30 04:17:47;;;;;;;11.10;10.00;;;;;;;;;;4954424;28;20031;-77
2023/08/30 04:20:13;;;;;;;11.48;10.18;;;;;;;;;;4938017;29;20031;-78
2023/08/30 04:22:39;;;;;;;11.45;10.48;;;;;;;;;;4955430;29;20078;-78
2023/08/30 04:25:09;;;;;;;10.82;9.60;;;;;;;;;;4952908;28;20031;-77
2023/08/30 04:27:35;;;;;;;10.98;9.98;;;;;;;;;;4969472;28;20489;-78
2023/08/30 04:30:02;;;;;;;11.55;10.45;;;;;;;;;;4968955;28;20035;-77
2023/08/30 04:32:30;;;;;;;11.32;10.25;;;;;;;;;;4955221;28;20360;-77
2023/08/30 04:34:57;;;;;;;11.32;10.05;;;;;;;;;;4954931;28;20039;-76
2023/08/30 04:37:23;;;;;;;11.18;9.65;;;;;;;;;;4953330;28;20543;-77
2023/08/30 04:39:49;;;;;;;11.13;9.68;;;;;;;;;;4953364;29;20094;-76
2023/08/30 04:42:15;;;;;;;12.85;10.50;;;;;;;;;;4954667;28;20043;-77
2023/08/30 04:44:41;;;;;;;13.13;9.93;;;;;;;;;;4956474;29;20058;-77
2023/08/30 04:47:07;;;;;;;14.20;10.75;;;;;;;;;;4970970;28;20601;-77
2023/08/30 04:49:34;;;;;;;9.65;8.82;;;;;;;;;;4980348;28;20043;-76
2023/08/30 04:52:02;;;;;;;10.43;9.38;;;;;;;;;;4977465;28;20625;-78
2023/08/30 04:54:28;;;;;;;8.15;7.55;;;;;;;;;;4941693;29;20160;-77
2023/08/30 04:56:54;;;;;;;9.52;8.50;;;;;;;;;;4955755;29;20180;-75
2023/08/30 04:59:21;;;;;;;8.82;8.18;;;;;;;;;;4940423;29;20039;-77
2023/08/30 05:01:49;;;;;;;8.60;7.90;;;;;;;;;;4967967;28;20206;-75
2023/08/30 05:04:17;;;;;;;10.50;8.63;;;;;;;;;;4936440;29;20484;-77
2023/08/30 05:06:43;;;;;;;9.02;8.23;;;;;;;;;;4968280;28;20419;-77
2023/08/30 05:09:09;;;;;;;9.00;8.10;;;;;;;;;;4940050;29;20582;-76
2023/08/30 05:11:35;;;;;;;7.72;7.13;;;;;;;;;;4952524;29;20034;-77
2023/08/30 05:14:02;;;;;;;8.07;7.38;;;;;;;;;;4968264;28;20126;-76
2023/08/30 05:16:28;;;;;;;8.13;7.10;;;;;;;;;;4968412;28;20049;-77
2023/08/30 05:18:54;;;;;;;8.10;7.30;;;;;;;;;;4952205;29;20412;-77
2023/08/30 05:21:20;;;;;;;9.35;6.20;;;;;;;;;;4953411;29;20039;-77
2023/08/30 05:23:47;;;;;;;8.25;5.70;;;;;;;;;;4952206;28;20046;-76
2023/08/30 05:26:13;;;;;;;7.35;6.65;;;;;;;;;;4936173;28;20041;-77
2023/08/30 05:28:39;;;;;;;7.65;6.93;;;;;;;;;;4951795;28;20130;-77
2023/08/30 05:31:06;;;;;;;6.03;5.28;;;;;;;;;;4968033;28;20035;-77
2023/08/30 05:33:51;;;;;;;6.00;5.50;;;;;;;;;;4953399;28;20095;-78
2023/08/30 05:36:40;;;;;;;8.02;6.40;;;;;;;;;;4920968;29;20031;-77
2023/08/30 05:39:22;;;;;;;7.05;6.45;;;;;;;;;;4968377;28;20043;-77
2023/08/30 05:41:53;;;;;;;10.90;7.28;;;;;;;;;;4967598;28;20031;-76
2023/08/30 05:44:21;;;;;;;7.82;7.13;;;;;;;;;;4952807;29;20046;-78
2023/08/30 05:46:47;;;;;;;6.88;6.38;;;;;;;;;;4951648;29;20031;-76
2023/08/30 05:49:14;;;;;;;7.65;6.78;;;;;;;;;;4951433;28;20393;-77
2023/08/30 05:51:40;;;;;;;10.60;8.07;;;;;;;;;;4935398;29;20071;-78
2023/08/30 05:54:06;;;;;;;7.43;6.75;;;;;;;;;;4935299;28;20035;-78
2023/08/30 05:56:33;;;;;;;8.02;7.20;;;;;;;;;;4935982;29;20098;-78
2023/08/30 05:58:59;;;;;;;8.02;7.32;;;;;;;;;;4967507;28;20073;-78
2023/08/30 06:01:25;;;;;;;7.10;6.50;;;;;;;;;;4918936;29;20082;-77
2023/08/30 06:03:51;;;;;;;7.35;6.60;;;;;;;;;;4951754;28;20106;-77
2023/08/30 06:06:18;;;;;;;7.28;6.68;;;;;;;;;;4971906;28;20031;-78
2023/08/30 06:08:44;;;;;;;7.72;7.18;;;;;;;;;;4954703;28;20035;-77
2023/08/30 06:11:10;;;;;;;7.38;6.78;;;;;;;;;;4971773;28;20046;-78
2023/08/30 06:13:36;;;;;;;6.82;6.18;;;;;;;;;;4972116;28;20038;-76
2023/08/30 06:16:02;;;;;;;6.55;6.05;;;;;;;;;;4953796;28;20031;-78
2023/08/30 06:18:29;;;;;;;7.82;5.85;;;;;;;;;;4971470;28;20042;-77
2023/08/30 06:20:55;;;;;;;6.88;6.38;;;;;;;;;;4970100;28;20031;-77
2023/08/30 06:23:21;;;;;;;6.22;5.60;;;;;;;;;;4954261;28;20070;-78
2023/08/30 06:25:56;;;;;;;6.22;5.10;;;;;;;;;;4971986;28;20027;-77
2023/08/30 06:28:22;;;;;;;6.57;5.75;;;;;;;;;;4971850;28;20042;-77
2023/08/30 06:30:48;;;;;;;6.00;5.43;;;;;;;;;;4971763;28;20442;-77
2023/08/30 06:33:14;;;;;;;7.50;5.30;;;;;;;;;;4972219;28;20039;-77
2023/08/30 06:35:42;;;;;;;5.70;5.22;;;;;;;;;;4972630;28;20038;-77
2023/08/30 06:38:09;;;;;;;6.07;5.55;;;;;;;;;;4970454;28;20050;-79
2023/08/30 06:40:36;;;;;;;5.85;5.40;;;;;;;;;;4955141;28;20503;-79
2023/08/30 06:43:03;;;;;;;6.38;5.88;;;;;;;;;;4938667;28;20049;-78
2023/08/30 06:45:32;;;;;;;5.88;5.47;;;;;;;;;;4973055;28;20121;-78
2023/08/30 06:47:58;;;;;;;5.30;4.90;;;;;;;;;;4952642;28;20572;-78
2023/08/30 06:50:24;;;;;;;6.20;5.60;;;;;;;;;;4954468;28;20527;-77
2023/08/30 06:52:50;;;;;;;6.53;5.97;;;;;;;;;;4951090;28;20053;-78
2023/08/30 06:55:16;;;;;;;5.82;4.82;;;;;;;;;;4951580;29;20031;-78
2023/08/30 06:57:46;;;;;;;7.38;5.97;;;;;;;;;;4972139;28;20043;-78
2023/08/30 07:00:12;;;;;;;;;;;;;;;;;;4935721;28;20283;-78
2023/08/30 07:02:38;;;;;;;7.93;6.22;;;;;;;;;;4958996;28;20181;-79
2023/08/30 07:05:05;;;;;;;9.90;6.00;;;;;;;;;;4970298;28;20113;-79
2023/08/30 07:07:31;;;;;;;6.70;6.07;;;;;;;;;;4953905;28;20027;-78
2023/08/30 07:09:58;;;;;;;7.00;6.40;;;;;;;;;;4953919;28;20050;-78
2023/08/30 07:12:25;;;;;;;7.35;6.65;;;;;;;;;;4970782;28;20136;-77
2023/08/30 07:14:51;;;;;;;5.97;5.57;;;;;;;;;;4973236;28;20039;-80
2023/08/30 07:17:17;;;;;;;7.20;6.70;;;;;;;;;;4973427;28;20499;-79
2023/08/30 07:19:44;;;;;;;7.43;6.93;;;;;;;;;;4973247;28;20039;-77
2023/08/30 07:22:10;;;;;;;7.82;6.78;;;;;;;;;;4972860;28;20459;-79
2023/08/30 07:24:36;;;;;;;9.90;6.07;;;;;;;;;;4972594;28;20038;-79
2023/08/30 07:27:03;;;;;;;7.82;5.75;;;;;;;;;;4940139;28;20034;-78
2023/08/30 07:29:29;;;;;;;6.80;6.18;;;;;;;;;;4972792;28;20039;-79
2023/08/30 07:31:55;;;;;;;7.20;6.68;;;;;;;;;;4972992;28;20039;-79
2023/08/30 07:34:21;;;;;;;8.00;7.30;;;;;;;;;;4960753;28;20035;-78
2023/08/30 07:36:47;;;;;;;7.20;6.05;;;;;;;;;;4972642;28;20038;-79
2023/08/30 07:39:14;;;;;;;10.45;8.30;;;;;;;;;;4956577;28;20177;-79
2023/08/30 07:41:40;;;;;;;9.10;7.38;;;;;;;;;;4949779;28;20039;-79
2023/08/30 07:44:06;;;;;;;18.65;15.98;;;;;;;;;;4953917;28;20047;-78
2023/08/30 07:46:32;;;;;;;8.63;7.97;;;;;;;;;;4971624;28;20045;-77
2023/08/30 07:48:58;;;;;;;8.75;7.95;;;;;;;;;;4951890;28;20039;-79
2023/08/30 07:51:24;;;;;;;12.35;10.35;;;;;;;;;;4941057;28;20034;-78
2023/08/30 07:53:50;;;;;;;12.60;11.32;;;;;;;;;;4978951;28;20034;-78
2023/08/30 07:56:16;;;;;;;10.60;8.52;;;;;;;;;;4968479;28;20062;-78
2023/08/30 07:58:42;;;;;;;9.73;8.55;;;;;;;;;;4967553;28;20163;-79
2023/08/30 08:01:09;;;;;;;6.82;6.28;;;;;;;;;;4969951;28;20123;-78
2023/08/30 08:03:35;;;;;;;7.03;6.53;;;;;;;;;;4949987;28;20051;-79
2023/08/30 08:06:01;;;;;;;9.20;7.13;;;;;;;;;;4975052;28;20534;-78
2023/08/30 08:08:27;;;;;;;10.65;6.63;;;;;;;;;;4974178;28;20097;-78
2023/08/30 08:10:53;;;;;;;7.47;6.68;;;;;;;;;;4974755;28;20030;-79
2023/08/30 08:13:19;;;;;;;7.82;7.22;;;;;;;;;;4974462;28;20078;-80
2023/08/30 08:15:45;;;;;;;9.60;7.60;;;;;;;;;;4941044;28;20026;-77
2023/08/30 08:18:11;;;;;;;8.05;7.45;;;;;;;;;;4974163;28;20125;-78
2023/08/30 08:20:37;;;;;;;10.50;7.10;;;;;;;;;;4974278;28;20042;-80
2023/08/30 08:23:03;;;;;;;8.05;7.28;;;;;;;;;;4956468;28;20070;-78
2023/08/30 08:25:29;;;;;;;10.68;8.00;;;;;;;;;;4956598;28;20491;-79
2023/08/30 08:27:55;;;;;;;7.28;6.68;;;;;;;;;;4973829;28;20074;-79
2023/08/30 08:30:22;;;;;;;9.60;8.15;;;;;;;;;;4973292;28;20121;-78
2023/08/30 08:32:48;;;;;;;8.45;7.85;;;;;;;;;;4940217;28;20066;-78
2023/08/30 08:35:14;;;;;;;9.85;9.15;;;;;;;;;;4972422;28;20121;-79
2023/08/30 08:37:40;;;;;;;9.90;8.80;;;;;;;;;;4939689;28;20074;-79
2023/08/30 08:40:10;;;;;;;9.30;8.30;;;;;;;;;;4960799;28;20051;-79
2023/08/30 08:42:36;;;;;;;8.77;7.82;;;;;;;;;;4956696;28;20541;-78
2023/08/30 08:45:03;;;;;;;9.75;8.02;;;;;;;;;;4972351;28;20030;-77
2023/08/30 08:47:33;;;;;;;8.60;7.90;;;;;;;;;;4973610;28;20124;-78
2023/08/30 08:50:00;;;;;;;8.23;7.55;;;;;;;;;;4973915;28;20082;-79
2023/08/30 08:52:26;;;;;;;9.27;7.57;;;;;;;;;;4955513;28;20511;-78
2023/08/30 08:54:54;;;;;;;7.80;6.72;;;;;;;;;;4956292;28;20034;-78
2023/08/30 08:57:21;;;;;;;7.72;6.97;;;;;;;;;;4973830;28;20034;-79
2023/08/30 08:59:47;;;;;;;7.82;6.53;;;;;;;;;;4975000;28;20026;-79
2023/08/30 09:02:14;;;;;;;7.28;6.68;;;;;;;;;;4970661;28;20106;-79
2023/08/30 09:04:40;;;;;;;12.65;6.63;;;;;;;;;;4955917;28;20210;-79
2023/08/30 09:07:06;;;;;;;7.80;7.07;;;;;;;;;;4973613;28;20038;-78
2023/08/30 09:09:33;;;;;;;6.32;5.07;;;;;;;;;;4960358;28;20031;-78
2023/08/30 09:11:59;;;;;;;6.72;6.32;;;;;;;;;;4978566;28;20495;-79
2023/08/30 09:14:25;;;;;;;6.22;5.72;;;;;;;;;;4974524;28;20035;-78
2023/08/30 09:16:57;;;;;;;6.70;6.10;;;;;;;;;;4955957;28;20039;-79
2023/08/30 09:19:24;;;;;;;5.70;5.30;;;;;;;;;;4972967;28;20042;-79
2023/08/30 09:21:59;;;;;;;6.10;5.60;;;;;;;;;;4939409;28;20125;-79
2023/08/30 09:24:25;;;;;;;5.63;5.22;;;;;;;;;;4973165;28;20054;-78
2023/08/30 09:26:54;;;;;;;6.03;5.57;;;;;;;;;;4973220;28;20504;-78
2023/08/30 09:29:21;;;;;;;7.25;6.20;;;;;;;;;;4920787;28;20175;-80
2023/08/30 09:31:50;;;;;;;6.13;5.65;;;;;;;;;;4943616;28;20031;-80
2023/08/30 09:34:16;;;;;;;11.25;5.93;;;;;;;;;;4954027;28;20065;-78
2023/08/30 09:36:42;;;;;;;11.07;5.22;;;;;;;;;;4973805;28;20515;-81
2023/08/30 09:39:11;;;;;;;6.05;5.50;;;;;;;;;;4953767;28;20456;-78
2023/08/30 09:41:41;;;;;;;6.53;6.03;;;;;;;;;;4973874;28;20066;-79
2023/08/30 09:44:11;;;;;;;8.25;6.13;;;;;;;;;;4956682;28;20047;-79
2023/08/30 09:46:46;;;;;;;9.60;5.60;;;;;;;;;;4941221;28;20035;-79
2023/08/30 09:49:13;;;;;;;10.05;5.18;;;;;;;;;;4953254;28;20574;-79
2023/08/30 09:51:42;;;;;;;6.07;5.68;;;;;;;;;;4928767;29;20119;-79
2023/08/30 09:54:11;;;;;;;5.72;5.25;;;;;;;;;;4938301;28;20592;-79
2023/08/30 09:56:37;;;;;;;6.60;5.78;;;;;;;;;;4972400;28;20053;-79
2023/08/30 09:59:03;;;;;;;6.20;5.60;;;;;;;;;;4973768;28;20019;-79
2023/08/30 10:01:29;;;;;;;7.13;6.57;;;;;;;;;;4939663;28;20085;-79
2023/08/30 10:03:55;;;;;;;5.95;5.35;;;;;;;;;;4939972;28;20082;-79
2023/08/30 10:06:21;;;;;;;10.18;5.95;;;;;;;;;;4955515;28;20039;-79
2023/08/30 10:08:47;;;;;;;5.75;5.25;;;;;;;;;;4955765;28;20337;-79
2023/08/30 10:11:13;;;;;;;10.55;5.70;;;;;;;;;;4973302;28;20122;-79
2023/08/30 10:13:39;;;;;;;11.50;5.60;;;;;;;;;;4954884;28;20058;-80
2023/08/30 10:16:06;;;;;;;6.82;5.18;;;;;;;;;;4955272;28;20034;-79
2023/08/30 10:18:32;;;;;;;7.07;4.78;;;;;;;;;;4936004;29;20499;-79
2023/08/30 10:20:58;;;;;;;11.25;5.20;;;;;;;;;;4962488;28;20039;-78
2023/08/30 10:23:24;;;;;;;8.50;4.97;;;;;;;;;;4919409;29;20039;-79
2023/08/30 10:25:50;;;;;;;5.75;5.20;;;;;;;;;;4962057;28;20112;-80
2023/08/30 10:28:16;;;;;;;6.28;4.97;;;;;;;;;;4954769;28;20031;-79
2023/08/30 10:30:43;;;;;;;7.35;4.90;;;;;;;;;;4955015;28;20183;-79
2023/08/30 10:33:16;;;;;;;4.68;4.38;;;;;;;;;;4954697;28;20047;-78
2023/08/30 10:35:49;;;;;;;5.20;4.88;;;;;;;;;;4939007;28;20043;-78
2023/08/30 10:38:24;;;;;;;5.30;4.80;;;;;;;;;;4970667;28;20047;-79
2023/08/30 10:40:50;;;;;;;5.72;5.30;;;;;;;;;;4959269;28;20030;-80
2023/08/30 10:43:16;;;;;;;7.45;5.10;;;;;;;;;;4954759;28;20054;-78
2023/08/30 10:45:42;;;;;;;4.70;4.30;;;;;;;;;;4970391;28;20427;-79
2023/08/30 10:48:08;;;;;;;7.43;5.05;;;;;;;;;;4938685;28;20035;-78
2023/08/30 10:50:35;;;;;;;7.75;4.40;;;;;;;;;;4971851;28;20085;-79
2023/08/30 10:53:01;;;;;;;5.88;5.25;;;;;;;;;;4955164;28;20168;-78
2023/08/30 10:55:27;;;;;;;5.80;4.68;;;;;;;;;;4955649;28;20121;-78
2023/08/30 10:58:04;;;;;;;4.82;4.40;;;;;;;;;;4975166;28;20459;-78
2023/08/30 11:00:30;;;;;;;4.57;4.28;;;;;;;;;;4982750;28;20041;-77
2023/08/30 11:02:56;;;;;;;4.40;3.97;;;;;;;;;;4951317;28;20118;-78
2023/08/30 11:05:26;;;;;;;5.30;4.90;;;;;;;;;;4976703;28;20043;-79
2023/08/30 11:07:52;;;;;;;6.88;4.10;;;;;;;;;;4971584;28;20045;-79
2023/08/30 11:10:19;;;;;;;5.20;4.45;;;;;;;;;;4970490;28;20133;-78
2023/08/30 11:12:45;;;;;;;3.97;3.53;;;;;;;;;;4953969;28;20190;-76
2023/08/30 11:15:13;;;;;;;4.47;3.97;;;;;;;;;;4971026;28;20090;-79
2023/08/30 11:17:39;;;;;;;5.65;3.85;;;;;;;;;;4953908;28;20042;-79
2023/08/30 11:20:06;;;;;;;5.53;4.47;;;;;;;;;;4918894;29;20530;-78
2023/08/30 11:22:32;;;;;;;4.38;4.07;;;;;;;;;;4941043;29;20058;-78
2023/08/30 11:24:58;;;;;;;8.20;4.50;;;;;;;;;;4968604;28;20065;-78
2023/08/30 11:27:24;;;;;;;8.73;4.28;;;;;;;;;;4941776;28;20062;-78
2023/08/30 11:29:50;;;;;;;4.57;4.28;;;;;;;;;;4957247;28;20033;-78
2023/08/30 11:32:16;;;;;;;4.53;4.13;;;;;;;;;;4974602;28;20616;-78
2023/08/30 11:34:42;;;;;;;4.07;3.78;;;;;;;;;;4974628;28;20031;-78
2023/08/30 11:37:09;;;;;;;7.32;4.93;;;;;;;;;;4941106;28;20042;-78
2023/08/30 11:39:35;;;;;;;4.13;3.80;;;;;;;;;;4957025;28;20114;-78
2023/08/30 11:42:03;;;;;;;5.10;4.00;;;;;;;;;;4964565;28;20553;-79
2023/08/30 11:44:29;;;;;;;4.78;4.28;;;;;;;;;;4958781;28;20041;-79
2023/08/30 11:46:59;;;;;;;4.68;4.28;;;;;;;;;;4972994;28;20065;-77
2023/08/30 11:49:26;;;;;;;7.38;4.50;;;;;;;;;;4974224;28;20127;-78
2023/08/30 11:51:52;;;;;;;4.57;4.28;;;;;;;;;;4974295;28;20038;-79
2023/08/30 11:54:21;;;;;;;5.15;4.32;;;;;;;;;;4974203;28;20097;-80
2023/08/30 11:56:49;;;;;;;5.03;4.10;;;;;;;;;;4956788;28;20038;-78
2023/08/30 11:59:19;;;;;;;4.55;4.18;;;;;;;;;;4953582;28;20050;-78
2023/08/30 12:01:45;;;;;;;;;;;;;;;;;;4957193;28;20050;-78
2023/08/30 12:04:11;;;;;;;6.78;4.47;;;;;;;;;;4957089;28;19985;-79
2023/08/30 12:06:37;;;;;;;5.15;4.60;;;;;;;;;;4974079;28;20046;-80
2023/08/30 12:09:05;;;;;;;4.32;4.03;;;;;;;;;;4956824;28;20038;-78
2023/08/30 12:11:31;;;;;;;7.63;4.60;;;;;;;;;;4973886;28;20058;-79
2023/08/30 12:14:01;;;;;;;4.65;4.13;;;;;;;;;;4956685;28;20034;-79
2023/08/30 12:16:27;;;;;;;6.35;4.47;;;;;;;;;;4954092;28;20542;-78
2023/08/30 12:18:53;;;;;;;5.72;4.25;;;;;;;;;;4974395;28;20062;-78
2023/08/30 12:21:19;;;;;;;6.05;4.20;;;;;;;;;;4972744;28;20113;-79
2023/08/30 12:23:46;;;;;;;5.70;5.15;;;;;;;;;;4956843;28;20058;-78
2023/08/30 12:26:12;;;;;;;5.82;4.53;;;;;;;;;;4974103;28;20125;-78
2023/08/30 12:28:38;;;;;;;5.43;4.03;;;;;;;;;;4973891;28;20062;-78
2023/08/30 12:31:04;;;;;;;5.57;4.97;;;;;;;;;;4973889;28;20022;-80
2023/08/30 12:33:31;;;;;;;7.03;4.93;;;;;;;;;;4968324;28;20070;-79
2023/08/30 12:35:57;;;;;;;7.30;4.75;;;;;;;;;;4970262;28;20129;-79
2023/08/30 12:38:23;;;;;;;6.38;5.45;;;;;;;;;;4959245;28;20066;-79
2023/08/30 12:40:49;;;;;;;5.85;5.40;;;;;;;;;;4974885;28;20045;-77
2023/08/30 12:43:16;;;;;;;16.38;5.05;;;;;;;;;;4957309;28;20069;-79
2023/08/30 12:45:42;;;;;;;5.53;4.85;;;;;;;;;;4957427;28;20101;-79
2023/08/30 12:48:09;;;;;;;11.63;4.60;;;;;;;;;;4957672;28;20030;-79
2023/08/30 12:50:35;;;;;;;5.82;4.68;;;;;;;;;;4973249;28;20039;-78
2023/08/30 12:53:02;;;;;;;7.80;4.97;;;;;;;;;;4956623;28;20062;-79
2023/08/30 12:55:28;;;;;;;8.40;4.60;;;;;;;;;;4956459;28;20043;-78
2023/08/30 12:57:54;;;;;;;10.63;4.93;;;;;;;;;;4953958;28;20046;-79
2023/08/30 13:00:20;;;;;;;8.43;4.80;;;;;;;;;;4973228;28;20093;-78
2023/08/30 13:02:46;;;;;;;6.40;4.20;;;;;;;;;;4955569;28;20471;-78
2023/08/30 13:05:12;;;;;;;4.70;4.30;;;;;;;;;;4972240;28;20038;-80
2023/08/30 13:07:39;;;;;;;4.90;4.50;;;;;;;;;;4955437;28;20034;-77
2023/08/30 13:10:07;;;;;;;5.00;4.55;;;;;;;;;;4972733;28;20093;-76
2023/08/30 13:12:33;;;;;;;7.32;4.68;;;;;;;;;;4939476;28;20093;-77
2023/08/30 13:14:59;;;;;;;8.55;4.10;;;;;;;;;;4969708;28;20069;-78
2023/08/30 13:17:25;;;;;;;5.70;4.07;;;;;;;;;;4962004;28;20066;-76
2023/08/30 13:19:51;;;;;;;4.38;3.92;;;;;;;;;;4969032;28;20041;-79
2023/08/30 13:22:17;;;;;;;5.18;4.00;;;;;;;;;;4972724;28;20035;-78
2023/08/30 13:24:44;;;;;;;6.32;3.60;;;;;;;;;;4972636;28;20039;-78
2023/08/30 13:27:10;;;;;;;5.22;3.40;;;;;;;;;;4972650;28;20046;-77
2023/08/30 13:29:36;;;;;;;5.07;3.60;;;;;;;;;;4972571;28;20061;-77
2023/08/30 13:32:03;;;;;;;4.38;3.65;;;;;;;;;;4971748;28;20030;-77
2023/08/30 13:34:29;;;;;;;6.00;3.53;;;;;;;;;;4972416;28;20098;-77
2023/08/30 13:36:55;;;;;;;8.68;4.43;;;;;;;;;;4972779;28;20035;-78
2023/08/30 13:39:21;;;;;;;4.97;3.55;;;;;;;;;;4972677;28;20082;-79
2023/08/30 13:41:48;;;;;;;7.90;3.97;;;;;;;;;;4972099;28;20031;-78
2023/08/30 13:44:14;;;;;;;3.53;3.22;;;;;;;;;;4954074;28;20059;-77
2023/08/30 13:46:40;;;;;;;3.72;3.40;;;;;;;;;;4973186;28;20038;-77
2023/08/30 13:49:06;;;;;;;3.28;3.08;;;;;;;;;;4922543;28;20081;-78
2023/08/30 13:51:32;;;;;;;3.25;2.92;;;;;;;;;;4939662;28;20066;-78
2023/08/30 13:53:58;;;;;;;3.47;2.85;;;;;;;;;;4977778;28;20450;-77
2023/08/30 13:56:24;;;;;;;3.17;2.80;;;;;;;;;;4955799;28;20078;-78
2023/08/30 13:58:50;;;;;;;4.43;2.92;;;;;;;;;;4971344;28;20040;-78
2023/08/30 14:01:16;;;;;;;4.90;3.00;;;;;;;;;;4955440;28;20034;-77
2023/08/30 14:03:43;;;;;;;3.00;2.80;;;;;;;;;;4954551;28;20051;-78
2023/08/30 14:06:09;;;;;;;4.05;2.95;;;;;;;;;;4971987;28;20035;-78
2023/08/30 14:08:35;;;;;;;2.80;2.60;;;;;;;;;;4971771;28;20498;-79
2023/08/30 14:11:01;;;;;;;12.55;3.72;;;;;;;;;;4954668;28;20049;-78
2023/08/30 14:13:32;;;;;;;12.88;3.33;;;;;;;;;;4971787;28;20030;-78
2023/08/30 14:15:59;;;;;;;4.78;2.80;;;;;;;;;;4938881;28;20047;-77
2023/08/30 14:18:26;;;;;;;4.38;2.90;;;;;;;;;;4951119;29;20024;-78
2023/08/30 14:20:55;;;;;;;8.35;3.90;;;;;;;;;;4953178;29;20125;-77
2023/08/30 14:23:20;;;;;;;4.47;3.13;;;;;;;;;;4969089;28;20043;-78
2023/08/30 14:25:54;;;;;;;5.13;3.50;;;;;;;;;;4945594;29;20127;-78
2023/08/30 14:28:20;;;;;;;3.33;3.13;;;;;;;;;;4957440;28;20122;-78
2023/08/30 14:30:46;;;;;;;5.10;3.28;;;;;;;;;;4975609;28;20070;-77